Terminal Aerodrome Forecast
Issued by NWS

Home | Current Version | Previous Version | Text Only | Print | Product List | Glossary On
Versions: 1 2 3 4 5 6 7 8 9 10 11 12 13 14 15 16 17 18 19 20 21 22 23 24
000
FTUS46 KSEW 270600 AAA
TAFCLM
TAF AMD
KCLM 270601Z 2706/2806 13005KT 2SM -RA BR BKN010 BKN025 OVC060
      TEMPO 2706/2710 1/4SM FG BKN009
     FM271000 25004KT P6SM -RA OVC025
     FM272000 26007KT P6SM -RA OVC030=

USA.gov is the U.S. government's official web portal to all federal, state and local government web resources and services.